Time;durP1;ratioP1;P1;durP2;ratioP2;P2;SDS_P1;SDS_P2;PMS_P1;PMS_P2;Temp;Humidity;BMP_temperature;BMP_pressure;BME280_temperature;BME280_humidity;BME280_pressure;Samples;Min_cycle;Max_cycle;Signal;HPM_P1;HPM_P2
2022/10/23 00:01:30;;;;;;;;;;;;;14.70;97490.40;;;;108983;1270;42165;-54
2022/10/23 00:04:01;;;;;;;;;;;;;14.70;97496.20;;;;108990;1269;41136;-55
2022/10/23 00:06:32;;;;;;;;;;;;;14.70;97494.80;;;;108987;1268;41159;-55
2022/10/23 00:09:03;;;;;;;;;;;;;14.68;97496.60;;;;108996;1271;41553;-55
2022/10/23 00:11:33;;;;;;;;;;;;;14.60;97493.00;;;;108949;1271;41240;-55
2022/10/23 00:14:03;;;;;;;;;;;;;14.60;97499.40;;;;108958;1271;41141;-55
2022/10/23 00:16:32;;;;;;;;;;;;;14.52;97498.40;;;;108964;1270;41764;-54
2022/10/23 00:19:02;;;;;;;;;;;;;14.50;97502.60;;;;109037;1268;41875;-55
2022/10/23 00:21:33;;;;;;;;;;;;;14.54;97507.40;;;;109007;1268;41180;-55
2022/10/23 00:24:02;;;;;;;;;;;;;14.58;97518.80;;;;109014;1268;41232;-54
2022/10/23 00:26:32;;;;;;;;;;;;;14.58;97527.20;;;;109024;1268;42298;-55
2022/10/23 00:29:02;;;;;;;;;;;;;14.60;97534.60;;;;109034;1268;41150;-55
2022/10/23 00:31:31;;;;;;;;;;;;;14.60;97536.20;;;;108925;1270;41414;-55
2022/10/23 00:34:01;;;;;;;;;;;;;14.60;97541.60;;;;109064;1267;41266;-54
2022/10/23 00:36:30;;;;;;;;;;;;;14.50;97548.00;;;;109005;1268;41243;-55
2022/10/23 00:39:00;;;;;;;;;;;;;14.50;97545.80;;;;109048;1268;42285;-55
2022/10/23 00:41:31;;;;;;;;;;;;;14.44;97548.80;;;;108969;1269;42503;-56
2022/10/23 00:44:00;;;;;;;;;;;;;14.40;97547.00;;;;108877;1271;41141;-53
2022/10/23 00:46:30;;;;;;;;;;;;;14.30;97548.00;;;;108842;1270;41146;-54
2022/10/23 00:49:00;;;;;;;;;;;;;14.28;97547.80;;;;108915;1271;42486;-53
2022/10/23 00:51:31;;;;;;;;;;;;;14.20;97557.60;;;;109046;1269;41238;-55
2022/10/23 00:54:01;;;;;;;;;;;;;14.20;97559.80;;;;108929;1267;41604;-55
2022/10/23 00:56:52;;;;;;;;;;;;;14.28;97558.80;;;;108776;1269;41184;-55
2022/10/23 00:59:22;;;;;;;;;;;;;14.30;97557.80;;;;108909;1271;41167;-54
2022/10/23 01:01:51;;;;;;;;;;;;;14.30;97553.80;;;;108927;1271;41144;-55
2022/10/23 01:04:22;;;;;;;;;;;;;14.20;97552.40;;;;108948;1271;41391;-55
2022/10/23 01:06:55;;;;;;;;;;;;;14.20;97552.20;;;;108945;1269;41127;-55
2022/10/23 01:09:31;;;;;;;;;;;;;14.10;97547.00;;;;108961;1271;41212;-54
2022/10/23 01:12:13;;;;;;;;;;;;;14.10;97547.40;;;;108950;1268;41198;-55
2022/10/23 01:14:49;;;;;;;;;;;;;14.00;97544.20;;;;108945;1268;42227;-55
2022/10/23 01:17:48;;;;;;;;;;;;;14.00;97542.40;;;;108739;1263;41234;-55
2022/10/23 01:20:24;;;;;;;;;;;;;14.00;97542.80;;;;108550;1271;41774;-54
2022/10/23 01:23:00;;;;;;;;;;;;;13.90;97548.40;;;;109047;1257;41700;-54
2022/10/23 01:25:42;;;;;;;;;;;;;13.88;97547.00;;;;108949;1268;41146;-55
2022/10/23 01:28:14;;;;;;;;;;;;;13.70;97550.60;;;;109072;1268;41165;-54
2022/10/23 01:30:44;;;;;;;;;;;;;13.60;97551.00;;;;109002;1271;41384;-54
2022/10/23 01:33:17;;;;;;;;;;;;;13.50;97550.20;;;;108918;1271;41437;-55
2022/10/23 01:35:55;;;;;;;;;;;;;13.32;97562.60;;;;108993;1268;41158;-54
2022/10/23 01:38:35;;;;;;;;;;;;;13.30;97570.80;;;;108958;1271;41299;-56
2022/10/23 01:41:14;;;;;;;;;;;;;13.24;97572.80;;;;108993;1271;41187;-54
2022/10/23 01:43:49;;;;;;;;;;;;;13.10;97578.80;;;;109036;1268;41614;-57
2022/10/23 01:46:20;;;;;;;;;;;;;13.18;97577.40;;;;108933;1268;41176;-54
2022/10/23 01:48:51;;;;;;;;;;;;;13.20;97580.40;;;;108874;1268;42392;-53
2022/10/23 01:51:22;;;;;;;;;;;;;13.20;97580.40;;;;108858;1268;41148;-54
2022/10/23 01:53:54;;;;;;;;;;;;;13.20;97581.40;;;;108788;1259;41143;-53
2022/10/23 01:56:25;;;;;;;;;;;;;13.30;97585.80;;;;108957;1268;41368;-54
2022/10/23 01:58:55;;;;;;;;;;;;;13.30;97587.20;;;;109016;1268;42099;-54
2022/10/23 02:01:28;;;;;;;;;;;;;13.40;97595.60;;;;108853;1268;41332;-54
2022/10/23 02:03:59;;;;;;;;;;;;;13.40;97592.80;;;;108917;1265;41155;-54
2022/10/23 02:06:28;;;;;;;;;;;;;13.50;97596.40;;;;108848;1271;41196;-55
2022/10/23 02:08:58;;;;;;;;;;;;;13.48;97603.20;;;;108992;1271;41232;-55
2022/10/23 02:11:27;;;;;;;;;;;;;13.50;97604.60;;;;109054;1269;41208;-54
2022/10/23 02:14:01;;;;;;;;;;;;;13.50;97611.80;;;;109015;1261;41174;-55
2022/10/23 02:16:30;;;;;;;;;;;;;13.50;97615.20;;;;108943;1261;41360;-54
2022/10/23 02:19:11;;;;;;;;;;;;;13.60;97614.40;;;;109015;1271;41921;-55
2022/10/23 02:21:43;;;;;;;;;;;;;13.60;97614.40;;;;108974;1271;41233;-55
2022/10/23 02:24:16;;;;;;;;;;;;;13.60;97616.20;;;;109037;1269;41351;-55
2022/10/23 02:26:47;;;;;;;;;;;;;13.60;97613.60;;;;109065;1268;41551;-54
2022/10/23 02:29:19;;;;;;;;;;;;;13.70;97619.60;;;;108975;1271;41159;-54
2022/10/23 02:31:49;;;;;;;;;;;;;13.70;97619.80;;;;108992;1270;41603;-52
2022/10/23 02:34:19;;;;;;;;;;;;;13.80;97623.80;;;;108935;1259;41137;-55
2022/10/23 02:36:50;;;;;;;;;;;;;13.80;97625.00;;;;108888;1270;41345;-54
2022/10/23 02:39:21;;;;;;;;;;;;;13.80;97637.40;;;;108946;1263;41149;-56
2022/10/23 02:41:54;;;;;;;;;;;;;13.80;97637.60;;;;108881;1270;41948;-55
2022/10/23 02:44:53;;;;;;;;;;;;;13.80;97638.20;;;;108987;1270;41155;-55
2022/10/23 02:47:26;;;;;;;;;;;;;13.80;97653.00;;;;108990;1268;41652;-55
2022/10/23 02:50:10;;;;;;;;;;;;;13.80;97659.80;;;;108914;1271;41591;-55
2022/10/23 02:52:47;;;;;;;;;;;;;13.80;97669.80;;;;108922;1271;41313;-53
2022/10/23 02:55:36;;;;;;;;;;;;;13.70;97664.80;;;;109040;1268;41154;-55
2022/10/23 02:58:08;;;;;;;;;;;;;13.70;97668.20;;;;109060;1269;42537;-55
2022/10/23 03:00:42;;;;;;;;;;;;;13.80;97673.20;;;;108895;1257;41310;-55
2022/10/23 03:03:16;;;;;;;;;;;;;13.80;97677.80;;;;108974;1269;41347;-55
2022/10/23 03:05:47;;;;;;;;;;;;;13.80;97675.20;;;;108978;1266;41141;-55
2022/10/23 03:08:18;;;;;;;;;;;;;13.80;97672.80;;;;108942;1271;41163;-55
2022/10/23 03:10:47;;;;;;;;;;;;;13.70;97683.00;;;;108958;1254;41146;-55
2022/10/23 03:13:22;;;;;;;;;;;;;13.70;97690.80;;;;108998;1271;41565;-55
2022/10/23 03:15:53;;;;;;;;;;;;;13.68;97690.80;;;;108991;1261;41616;-54
2022/10/23 03:18:22;;;;;;;;;;;;;13.60;97695.00;;;;109006;1268;41366;-55
2022/10/23 03:20:51;;;;;;;;;;;;;13.60;97697.80;;;;108923;1268;41155;-55
2022/10/23 03:23:22;;;;;;;;;;;;;13.60;97700.00;;;;108839;1271;41173;-54
2022/10/23 03:25:53;;;;;;;;;;;;;13.60;97697.60;;;;109034;1257;41141;-55
2022/10/23 03:28:36;;;;;;;;;;;;;13.40;97703.60;;;;109031;1271;41696;-55
2022/10/23 03:31:05;;;;;;;;;;;;;13.50;97706.20;;;;109014;1256;41396;-55
2022/10/23 03:33:34;;;;;;;;;;;;;13.48;97707.80;;;;108958;1271;41715;-54
2022/10/23 03:36:09;;;;;;;;;;;;;13.50;97712.20;;;;109097;1270;41136;-55
2022/10/23 03:38:39;;;;;;;;;;;;;13.50;97710.60;;;;108751;1271;41231;-55
2022/10/23 03:41:10;;;;;;;;;;;;;13.40;97708.60;;;;108959;1258;41706;-55
2022/10/23 03:43:40;;;;;;;;;;;;;13.40;97716.80;;;;108808;1271;41156;-55
2022/10/23 03:46:11;;;;;;;;;;;;;13.36;97717.00;;;;108835;1271;42296;-54
2022/10/23 03:48:41;;;;;;;;;;;;;13.30;97720.20;;;;109112;1269;41137;-54
2022/10/23 03:51:11;;;;;;;;;;;;;13.30;97719.20;;;;109062;1268;41478;-55
2022/10/23 03:53:41;;;;;;;;;;;;;13.30;97724.20;;;;108932;1271;41151;-55
2022/10/23 03:56:11;;;;;;;;;;;;;13.28;97730.00;;;;109057;1268;40865;-55
2022/10/23 03:58:40;;;;;;;;;;;;;13.30;97741.00;;;;109012;1268;41141;-55
2022/10/23 04:01:10;;;;;;;;;;;;;13.20;97740.20;;;;109076;1271;41748;-54
2022/10/23 04:03:39;;;;;;;;;;;;;13.22;97747.80;;;;109151;1269;41161;-55
2022/10/23 04:06:08;;;;;;;;;;;;;13.30;97752.60;;;;109040;1266;41232;-55
2022/10/23 04:08:38;;;;;;;;;;;;;13.22;97754.60;;;;109110;1268;41340;-54
2022/10/23 04:11:13;;;;;;;;;;;;;13.30;97764.20;;;;108816;1271;41386;-55
2022/10/23 04:13:45;;;;;;;;;;;;;13.30;97764.20;;;;108903;1271;41377;-55
2022/10/23 04:16:14;;;;;;;;;;;;;13.30;97764.80;;;;108943;1271;41162;-55
2022/10/23 04:18:44;;;;;;;;;;;;;13.20;97768.40;;;;109046;1268;42755;-55
2022/10/23 04:21:13;;;;;;;;;;;;;13.20;97769.00;;;;109056;1268;41214;-55
2022/10/23 04:23:42;;;;;;;;;;;;;13.22;97773.40;;;;108889;1271;41153;-54
2022/10/23 04:26:18;;;;;;;;;;;;;13.20;97772.00;;;;109046;1268;41921;-55
2022/10/23 04:28:47;;;;;;;;;;;;;13.20;97775.00;;;;109001;1269;41139;-55
2022/10/23 04:31:17;;;;;;;;;;;;;13.20;97774.40;;;;109002;1268;41142;-55
2022/10/23 04:33:46;;;;;;;;;;;;;13.10;97776.20;;;;108906;1270;41146;-55
2022/10/23 04:36:31;;;;;;;;;;;;;13.20;97773.20;;;;108880;1266;41165;-55
2022/10/23 04:39:09;;;;;;;;;;;;;13.10;97775.40;;;;108834;1271;41162;-55
2022/10/23 04:41:38;;;;;;;;;;;;;13.14;97783.40;;;;108586;1273;41595;-55
2022/10/23 04:44:07;;;;;;;;;;;;;13.10;97787.80;;;;108635;1271;41157;-55
2022/10/23 04:46:39;;;;;;;;;;;;;13.04;97789.00;;;;108891;1271;41943;-55
2022/10/23 04:49:09;;;;;;;;;;;;;13.10;97785.00;;;;109063;1272;41139;-55
2022/10/23 04:51:56;;;;;;;;;;;;;13.00;97785.00;;;;109038;1268;42255;-54
2022/10/23 04:54:45;;;;;;;;;;;;;13.00;97787.20;;;;108961;1268;41152;-55
2022/10/23 04:57:14;;;;;;;;;;;;;13.08;97791.60;;;;108976;1268;41141;-55
2022/10/23 04:59:55;;;;;;;;;;;;;13.10;97786.60;;;;108985;1264;41218;-55
2022/10/23 05:02:24;;;;;;;;;;;;;13.10;97794.00;;;;108974;1271;41174;-55
2022/10/23 05:04:53;;;;;;;;;;;;;13.10;97797.20;;;;108840;1271;41389;-55
2022/10/23 05:07:34;;;;;;;;;;;;;13.10;97807.60;;;;108974;1271;41545;-54
2022/10/23 05:10:26;;;;;;;;;;;;;13.14;97814.00;;;;108923;1271;41152;-54
2022/10/23 05:13:01;;;;;;;;;;;;;13.10;97817.60;;;;109020;1271;41162;-54
2022/10/23 05:15:30;;;;;;;;;;;;;13.20;97815.80;;;;108979;1269;41235;-54
2022/10/23 05:18:00;;;;;;;;;;;;;13.20;97817.60;;;;109020;1272;41132;-55
2022/10/23 05:20:29;;;;;;;;;;;;;13.22;97820.80;;;;108973;1272;41187;-54
2022/10/23 05:22:58;;;;;;;;;;;;;13.24;97826.00;;;;108974;1273;41925;-55
2022/10/23 05:25:27;;;;;;;;;;;;;13.30;97829.20;;;;109028;1272;41347;-54
2022/10/23 05:28:04;;;;;;;;;;;;;13.30;97830.00;;;;108856;1273;41171;-54
2022/10/23 05:30:33;;;;;;;;;;;;;13.38;97829.80;;;;108874;1273;41639;-54
2022/10/23 05:33:02;;;;;;;;;;;;;13.40;97833.60;;;;108776;1272;41150;-54
2022/10/23 05:35:36;;;;;;;;;;;;;13.36;97838.00;;;;108987;1273;41615;-55
2022/10/23 05:38:05;;;;;;;;;;;;;13.40;97845.60;;;;108810;1273;41150;-55
2022/10/23 05:40:34;;;;;;;;;;;;;13.30;97850.60;;;;108856;1273;41642;-54
2022/10/23 05:43:06;;;;;;;;;;;;;13.30;97851.80;;;;108763;1271;41886;-54
2022/10/23 05:45:50;;;;;;;;;;;;;13.40;97852.00;;;;108977;1272;41296;-54
2022/10/23 05:48:37;;;;;;;;;;;;;13.40;97856.20;;;;109011;1269;41155;-54
2022/10/23 05:51:06;;;;;;;;;;;;;13.40;97857.80;;;;108961;1272;41919;-54
2022/10/23 05:53:49;;;;;;;;;;;;;13.40;97860.20;;;;108907;1273;41136;-55
2022/10/23 05:56:36;;;;;;;;;;;;;13.40;97869.80;;;;108935;1273;41642;-55
2022/10/23 05:59:23;;;;;;;;;;;;;13.40;97874.60;;;;108963;1273;41150;-55
2022/10/23 06:02:12;;;;;;;;;;;;;13.40;97885.00;;;;109014;1273;41282;-55
2022/10/23 06:04:48;;;;;;;;;;;;;13.40;97887.20;;;;108997;1273;41147;-55
2022/10/23 06:07:26;;;;;;;;;;;;;13.40;97887.60;;;;108944;1273;41298;-55
2022/10/23 06:09:57;;;;;;;;;;;;;13.40;97890.80;;;;108875;1273;41224;-55
2022/10/23 06:12:25;;;;;;;;;;;;;13.40;97891.00;;;;108947;1271;41391;-55
2022/10/23 06:14:54;;;;;;;;;;;;;13.40;97895.40;;;;108929;1273;42584;-55
2022/10/23 06:17:27;;;;;;;;;;;;;13.40;97897.80;;;;108803;1272;41211;-55
2022/10/23 06:20:01;;;;;;;;;;;;;13.42;97896.40;;;;108968;1271;41131;-54
2022/10/23 06:22:32;;;;;;;;;;;;;13.50;97902.40;;;;109039;1273;42406;-55
2022/10/23 06:25:10;;;;;;;;;;;;;13.40;97902.20;;;;108987;1268;41253;-54
2022/10/23 06:27:38;;;;;;;;;;;;;13.40;97905.60;;;;109037;1271;42418;-54
2022/10/23 06:30:08;;;;;;;;;;;;;13.40;97907.60;;;;108961;1273;41189;-55
2022/10/23 06:32:37;;;;;;;;;;;;;13.50;97910.20;;;;108830;1271;41887;-55
2022/10/23 06:35:15;;;;;;;;;;;;;13.50;97919.00;;;;108965;1273;41140;-54
2022/10/23 06:37:43;;;;;;;;;;;;;13.60;97917.20;;;;108958;1270;41163;-55
2022/10/23 06:40:17;;;;;;;;;;;;;13.60;97921.00;;;;108979;1274;42460;-55
2022/10/23 06:42:56;;;;;;;;;;;;;13.70;97920.20;;;;108940;1273;41406;-55
2022/10/23 06:45:53;;;;;;;;;;;;;13.70;97921.60;;;;108907;1274;41140;-55
2022/10/23 06:48:47;;;;;;;;;;;;;13.70;97919.00;;;;108918;1271;41166;-56
2022/10/23 06:51:28;;;;;;;;;;;;;13.80;97916.20;;;;108857;1272;41387;-55
2022/10/23 06:53:56;;;;;;;;;;;;;13.80;97916.20;;;;108598;1274;41145;-55
2022/10/23 06:56:51;;;;;;;;;;;;;13.80;97922.20;;;;108832;1260;41234;-54
2022/10/23 06:59:22;;;;;;;;;;;;;13.80;97922.00;;;;108841;1274;41247;-54
2022/10/23 07:01:52;;;;;;;;;;;;;13.80;97923.60;;;;109051;1272;41256;-54
2022/10/23 07:04:22;;;;;;;;;;;;;13.80;97926.80;;;;108957;1272;41372;-55
2022/10/23 07:06:50;;;;;;;;;;;;;13.90;97928.80;;;;108924;1272;41239;-55
2022/10/23 07:09:23;;;;;;;;;;;;;13.88;97928.20;;;;108782;1271;41761;-54
2022/10/23 07:11:51;;;;;;;;;;;;;13.76;97934.20;;;;109014;1265;41164;-57
2022/10/23 07:14:24;;;;;;;;;;;;;13.74;97934.40;;;;109003;1270;41723;-55
2022/10/23 07:16:52;;;;;;;;;;;;;13.80;97938.80;;;;108911;1272;41452;-55
2022/10/23 07:19:21;;;;;;;;;;;;;13.80;97936.80;;;;108980;1272;42155;-55
2022/10/23 07:21:57;;;;;;;;;;;;;13.80;97942.00;;;;108942;1273;41670;-55
2022/10/23 07:24:44;;;;;;;;;;;;;13.80;97936.60;;;;108951;1271;41147;-55
2022/10/23 07:27:41;;;;;;;;;;;;;13.80;97936.80;;;;108385;1270;587442;-55
2022/10/23 07:30:12;;;;;;;;;;;;;13.82;97947.00;;;;108944;1270;41122;-55
2022/10/23 07:32:50;;;;;;;;;;;;;13.90;97945.60;;;;108971;1272;41710;-55
2022/10/23 07:35:40;;;;;;;;;;;;;13.80;97949.40;;;;109036;1272;41605;-54
2022/10/23 07:38:14;;;;;;;;;;;;;13.80;97952.00;;;;109032;1272;41915;-54
2022/10/23 07:40:45;;;;;;;;;;;;;13.88;97949.20;;;;109024;1271;42173;-55
2022/10/23 07:43:17;;;;;;;;;;;;;13.80;97950.60;;;;109032;1272;42377;-55
2022/10/23 07:45:47;;;;;;;;;;;;;13.90;97953.00;;;;108949;1272;41989;-54
2022/10/23 07:48:29;;;;;;;;;;;;;14.00;97954.00;;;;109030;1271;41630;-54
2022/10/23 07:51:02;;;;;;;;;;;;;14.00;97957.80;;;;108921;1270;41431;-55
2022/10/23 07:53:30;;;;;;;;;;;;;14.02;97959.00;;;;109037;1272;41134;-55
2022/10/23 07:56:25;;;;;;;;;;;;;14.10;97958.40;;;;108990;1273;41165;-55
2022/10/23 07:59:12;;;;;;;;;;;;;14.20;97957.20;;;;108985;1271;42316;-55
2022/10/23 08:01:41;;;;;;;;;;;;;14.30;97963.00;;;;109038;1269;41645;-56
2022/10/23 08:04:10;;;;;;;;;;;;;14.46;97960.40;;;;109018;1268;41624;-54
2022/10/23 08:06:44;;;;;;;;;;;;;14.56;97960.20;;;;109007;1269;41131;-55
2022/10/23 08:09:13;;;;;;;;;;;;;14.60;97958.80;;;;108976;1268;41618;-54
2022/10/23 08:11:42;;;;;;;;;;;;;14.60;97961.60;;;;109001;1269;41620;-55
2022/10/23 08:14:14;;;;;;;;;;;;;14.50;97970.80;;;;109037;1272;41398;-55
2022/10/23 08:16:43;;;;;;;;;;;;;14.40;97974.40;;;;109025;1269;41130;-55
2022/10/23 08:19:17;;;;;;;;;;;;;14.40;97979.80;;;;109035;1269;41191;-54
2022/10/23 08:21:46;;;;;;;;;;;;;14.44;97986.40;;;;108924;1271;41155;-55
2022/10/23 08:24:15;;;;;;;;;;;;;14.40;97987.80;;;;108950;1268;41755;-55
2022/10/23 08:26:45;;;;;;;;;;;;;14.32;97991.20;;;;108859;1271;41811;-62
2022/10/23 08:29:13;;;;;;;;;;;;;14.30;97989.80;;;;108647;1272;41168;-58
2022/10/23 08:31:42;;;;;;;;;;;;;14.30;97995.60;;;;108900;1270;41301;-58
2022/10/23 08:34:19;;;;;;;;;;;;;14.30;98002.00;;;;108939;1269;41600;-58
2022/10/23 08:36:48;;;;;;;;;;;;;14.30;97997.20;;;;108789;1272;41470;-58
2022/10/23 08:39:17;;;;;;;;;;;;;14.30;97993.40;;;;108925;1269;41188;-57
2022/10/23 08:41:56;;;;;;;;;;;;;14.30;98001.00;;;;108967;1269;42093;-57
2022/10/23 08:44:31;;;;;;;;;;;;;14.30;98005.20;;;;108830;1271;41155;-57
2022/10/23 08:47:13;;;;;;;;;;;;;14.30;98006.40;;;;108798;1270;42389;-58
2022/10/23 08:50:13;;;;;;;;;;;;;14.30;98012.60;;;;108928;1269;42208;-58
2022/10/23 08:52:51;;;;;;;;;;;;;14.40;98014.00;;;;108986;1269;41249;-58
2022/10/23 08:55:24;;;;;;;;;;;;;14.40;98019.00;;;;108813;1269;41149;-58
2022/10/23 08:57:53;;;;;;;;;;;;;14.40;98026.00;;;;109007;1269;41162;-58
2022/10/23 09:00:21;;;;;;;;;;;;;14.50;98018.60;;;;108976;1269;41147;-57
2022/10/23 09:02:50;;;;;;;;;;;;;14.40;98026.40;;;;108938;1269;41146;-59
2022/10/23 09:05:21;;;;;;;;;;;;;14.40;98026.60;;;;108928;1269;41141;-60
2022/10/23 09:08:01;;;;;;;;;;;;;14.40;98031.20;;;;108942;1269;41157;-58
2022/10/23 09:10:39;;;;;;;;;;;;;14.40;98034.20;;;;108873;1269;41896;-58
2022/10/23 09:13:19;;;;;;;;;;;;;14.40;98032.80;;;;108728;1269;41189;-58
2022/10/23 09:15:49;;;;;;;;;;;;;14.40;98029.40;;;;108917;1267;41240;-56
2022/10/23 09:18:17;;;;;;;;;;;;;14.48;98031.40;;;;108893;1269;41684;-57
2022/10/23 09:20:46;;;;;;;;;;;;;14.56;98030.40;;;;108853;1269;41608;-57
2022/10/23 09:23:15;;;;;;;;;;;;;14.60;98026.20;;;;108852;1269;41234;-57
2022/10/23 09:25:44;;;;;;;;;;;;;14.70;98023.40;;;;108846;1269;41231;-59
2022/10/23 09:28:20;;;;;;;;;;;;;14.78;98024.60;;;;108852;1269;41158;-58
2022/10/23 09:30:48;;;;;;;;;;;;;14.84;98023.40;;;;108854;1269;41703;-58
2022/10/23 09:33:18;;;;;;;;;;;;;14.90;98018.80;;;;108823;1269;41906;-59
2022/10/23 09:35:54;;;;;;;;;;;;;14.90;98026.80;;;;108941;1269;41419;-57
2022/10/23 09:38:25;;;;;;;;;;;;;14.90;98033.00;;;;108957;1269;41160;-58
2022/10/23 09:40:54;;;;;;;;;;;;;14.90;98032.80;;;;108820;1269;41635;-58
2022/10/23 09:43:26;;;;;;;;;;;;;15.00;98029.00;;;;108961;1269;41924;-58
2022/10/23 09:46:01;;;;;;;;;;;;;15.02;98040.80;;;;108965;1267;41692;-58
2022/10/23 09:48:30;;;;;;;;;;;;;15.10;98037.40;;;;108956;1269;41951;-57
2022/10/23 09:50:59;;;;;;;;;;;;;15.10;98034.40;;;;108955;1269;41463;-58
2022/10/23 09:53:30;;;;;;;;;;;;;15.10;98032.80;;;;108920;1270;41148;-58
2022/10/23 09:56:00;;;;;;;;;;;;;15.08;98034.60;;;;108963;1270;41222;-57
2022/10/23 09:58:34;;;;;;;;;;;;;15.00;98030.60;;;;108932;1269;41133;-58
2022/10/23 10:01:03;;;;;;;;;;;;;15.00;98035.00;;;;108955;1269;41518;-57
2022/10/23 10:03:48;;;;;;;;;;;;;15.00;98035.00;;;;108915;1269;41172;-57
2022/10/23 10:06:28;;;;;;;;;;;;;15.10;98030.60;;;;108647;1271;41162;-57
2022/10/23 10:08:58;;;;;;;;;;;;;15.10;98029.20;;;;108892;1269;41159;-57
2022/10/23 10:11:47;;;;;;;;;;;;;15.20;98028.20;;;;108907;1270;41138;-57
2022/10/23 10:14:15;;;;;;;;;;;;;15.30;98020.80;;;;108901;1271;41158;-57
2022/10/23 10:16:50;;;;;;;;;;;;;15.40;98029.40;;;;108926;1269;41149;-57
2022/10/23 10:19:35;;;;;;;;;;;;;15.40;98030.00;;;;109013;1269;41148;-58
2022/10/23 10:22:15;;;;;;;;;;;;;15.40;98035.40;;;;109026;1269;41921;-58
2022/10/23 10:24:46;;;;;;;;;;;;;15.40;98033.00;;;;108982;1269;41159;-58
2022/10/23 10:27:41;;;;;;;;;;;;;15.40;98039.60;;;;109000;1269;42137;-57
2022/10/23 10:30:09;;;;;;;;;;;;;15.32;98039.40;;;;108830;1269;42426;-58
2022/10/23 10:33:04;;;;;;;;;;;;;15.30;98038.20;;;;108940;1269;41164;-58
2022/10/23 10:35:42;;;;;;;;;;;;;15.30;98038.60;;;;108969;1269;41533;-58
2022/10/23 10:38:10;;;;;;;;;;;;;15.30;98038.00;;;;108803;1271;41160;-58
2022/10/23 10:40:39;;;;;;;;;;;;;15.30;98043.40;;;;108956;1269;41148;-58
2022/10/23 10:43:07;;;;;;;;;;;;;15.30;98042.80;;;;108977;1269;42245;-58
2022/10/23 10:45:39;;;;;;;;;;;;;15.30;98037.60;;;;108956;1269;41228;-58
2022/10/23 10:48:30;;;;;;;;;;;;;15.32;98038.00;;;;109029;1269;42003;-58
2022/10/23 10:51:43;;;;;;;;;;;;;15.42;98033.60;;;;108814;1269;41147;-58
2022/10/23 10:54:15;;;;;;;;;;;;;15.50;98027.80;;;;108939;1269;41142;-58
2022/10/23 10:56:43;;;;;;;;;;;;;15.60;98022.40;;;;108957;1269;41233;-58
2022/10/23 10:59:20;;;;;;;;;;;;;15.80;98029.00;;;;108999;1269;41139;-58
2022/10/23 11:01:48;;;;;;;;;;;;;15.90;98029.80;;;;108946;1269;41149;-58
2022/10/23 11:04:35;;;;;;;;;;;;;16.00;98033.20;;;;108967;1269;41174;-58
2022/10/23 11:07:07;;;;;;;;;;;;;16.00;98034.40;;;;108980;1269;41192;-59
2022/10/23 11:09:37;;;;;;;;;;;;;16.00;98038.00;;;;108992;1260;41404;-58
2022/10/23 11:12:05;;;;;;;;;;;;;15.90;98039.60;;;;108944;1269;41138;-58
2022/10/23 11:14:34;;;;;;;;;;;;;15.90;98035.20;;;;108979;1269;41370;-56
2022/10/23 11:17:02;;;;;;;;;;;;;15.90;98036.00;;;;108794;1269;41694;-59
2022/10/23 11:19:48;;;;;;;;;;;;;15.82;98036.20;;;;108914;1269;41707;-58
2022/10/23 11:22:31;;;;;;;;;;;;;15.80;98037.40;;;;109000;1269;41153;-58
2022/10/23 11:25:11;;;;;;;;;;;;;15.82;98039.00;;;;108938;1269;42656;-57
2022/10/23 11:27:45;;;;;;;;;;;;;15.90;98039.80;;;;108832;1269;41148;-57
2022/10/23 11:30:16;;;;;;;;;;;;;15.90;98033.20;;;;108879;1269;41131;-58
2022/10/23 11:32:57;;;;;;;;;;;;;15.90;98034.40;;;;108921;1269;41157;-58
2022/10/23 11:35:43;;;;;;;;;;;;;15.96;98037.20;;;;108934;1268;41141;-58
2022/10/23 11:38:12;;;;;;;;;;;;;16.00;98039.00;;;;108893;1269;41611;-58
2022/10/23 11:40:44;;;;;;;;;;;;;16.00;98044.80;;;;108862;1269;42651;-58
2022/10/23 11:43:13;;;;;;;;;;;;;16.10;98051.60;;;;108901;1265;41901;-57
2022/10/23 11:45:41;;;;;;;;;;;;;16.10;98051.00;;;;108630;1269;41238;-57
2022/10/23 11:48:12;;;;;;;;;;;;;16.10;98050.20;;;;108859;1269;41151;-58
2022/10/23 11:50:43;;;;;;;;;;;;;16.10;98046.20;;;;108888;1270;41270;-58
2022/10/23 11:53:32;;;;;;;;;;;;;16.10;98047.00;;;;109016;1269;42459;-59
2022/10/23 11:56:13;;;;;;;;;;;;;16.10;98049.40;;;;108868;1269;41409;-58
2022/10/23 11:58:46;;;;;;;;;;;;;16.08;98050.40;;;;109183;1268;41886;-58
2022/10/23 12:01:26;;;;;;;;;;;;;16.10;98053.40;;;;109021;1268;41640;-58
2022/10/23 12:03:55;;;;;;;;;;;;;16.24;98047.40;;;;109133;1268;41228;-58
2022/10/23 12:06:26;;;;;;;;;;;;;16.40;98045.60;;;;108959;1268;41350;-57
2022/10/23 12:08:56;;;;;;;;;;;;;16.50;98055.00;;;;109104;1268;41149;-58
2022/10/23 12:11:40;;;;;;;;;;;;;16.60;98052.40;;;;108954;1268;41720;-58
2022/10/23 12:14:25;;;;;;;;;;;;;16.90;98049.00;;;;109044;1262;41194;-59
2022/10/23 12:16:53;;;;;;;;;;;;;17.16;98045.80;;;;108962;1268;41189;-58
2022/10/23 12:19:22;;;;;;;;;;;;;17.32;98047.40;;;;109085;1268;41144;-58
2022/10/23 12:21:53;;;;;;;;;;;;;17.34;98041.20;;;;109054;1268;41757;-57
2022/10/23 12:24:38;;;;;;;;;;;;;17.30;98041.20;;;;109075;1263;41288;-57
2022/10/23 12:27:10;;;;;;;;;;;;;17.40;98047.20;;;;109120;1256;41222;-58
2022/10/23 12:29:45;;;;;;;;;;;;;17.30;98050.40;;;;109043;1268;41160;-58
2022/10/23 12:32:25;;;;;;;;;;;;;17.40;98051.40;;;;109097;1268;41161;-58
2022/10/23 12:35:09;;;;;;;;;;;;;17.46;98056.80;;;;109051;1268;41193;-58
2022/10/23 12:37:48;;;;;;;;;;;;;17.50;98058.00;;;;109072;1256;42547;-57
2022/10/23 12:40:17;;;;;;;;;;;;;17.40;98056.60;;;;109051;1264;41144;-58
2022/10/23 12:42:51;;;;;;;;;;;;;17.40;98066.40;;;;108982;1268;41465;-59
2022/10/23 12:45:29;;;;;;;;;;;;;17.30;98072.80;;;;108831;1268;41242;-58
2022/10/23 12:47:57;;;;;;;;;;;;;17.20;98068.00;;;;108945;1269;41260;-60
2022/10/23 12:50:26;;;;;;;;;;;;;17.10;98064.60;;;;108980;1268;42721;-59
2022/10/23 12:52:56;;;;;;;;;;;;;17.00;98064.60;;;;109015;1268;41146;-58
2022/10/23 12:55:25;;;;;;;;;;;;;17.00;98066.60;;;;108839;1269;41961;-57
2022/10/23 12:57:54;;;;;;;;;;;;;16.90;98058.80;;;;108997;1267;42188;-56
2022/10/23 13:00:23;;;;;;;;;;;;;16.80;98061.60;;;;108803;1269;41500;-56
2022/10/23 13:03:02;;;;;;;;;;;;;16.80;98063.20;;;;109056;1267;41891;-57
2022/10/23 13:05:30;;;;;;;;;;;;;16.80;98066.40;;;;109025;1265;41242;-56
2022/10/23 13:07:59;;;;;;;;;;;;;17.10;98064.80;;;;108907;1269;41178;-56
2022/10/23 13:10:38;;;;;;;;;;;;;17.50;98063.40;;;;108688;1271;41692;-56
2022/10/23 13:13:07;;;;;;;;;;;;;18.00;98048.80;;;;108954;1268;41141;-56
2022/10/23 13:15:37;;;;;;;;;;;;;18.54;98052.60;;;;108909;1269;41151;-57
2022/10/23 13:18:06;;;;;;;;;;;;;18.70;98054.20;;;;109024;1268;41145;-56
2022/10/23 13:20:36;;;;;;;;;;;;;18.60;98059.80;;;;109055;1266;41426;-59
2022/10/23 13:23:09;;;;;;;;;;;;;18.40;98057.80;;;;109085;1269;41276;-57
2022/10/23 13:25:38;;;;;;;;;;;;;18.30;98055.40;;;;109093;1268;41232;-57
2022/10/23 13:28:06;;;;;;;;;;;;;18.20;98062.00;;;;109030;1267;41152;-56
2022/10/23 13:30:37;;;;;;;;;;;;;18.10;98064.40;;;;108994;1256;41154;-57
2022/10/23 13:33:14;;;;;;;;;;;;;18.00;98061.00;;;;109017;1268;41610;-57
2022/10/23 13:35:43;;;;;;;;;;;;;17.98;98063.40;;;;108947;1266;42395;-57
2022/10/23 13:38:11;;;;;;;;;;;;;17.90;98065.20;;;;108860;1269;41679;-57
2022/10/23 13:40:40;;;;;;;;;;;;;18.12;98073.00;;;;109042;1268;41144;-57
2022/10/23 13:43:09;;;;;;;;;;;;;18.20;98081.40;;;;109039;1260;41623;-57
2022/10/23 13:45:39;;;;;;;;;;;;;18.16;98080.80;;;;109044;1268;42407;-57
2022/10/23 13:48:10;;;;;;;;;;;;;18.00;98074.40;;;;109049;1268;41606;-57
2022/10/23 13:50:38;;;;;;;;;;;;;17.80;98081.80;;;;109069;1266;41150;-57
2022/10/23 13:53:09;;;;;;;;;;;;;17.66;98087.20;;;;108998;1269;41473;-56
2022/10/23 13:55:39;;;;;;;;;;;;;17.40;98088.60;;;;109012;1269;41608;-57
2022/10/23 13:58:08;;;;;;;;;;;;;17.30;98091.20;;;;108988;1269;41361;-57
2022/10/23 14:00:36;;;;;;;;;;;;;17.30;98085.20;;;;108891;1269;41313;-57
2022/10/23 14:03:05;;;;;;;;;;;;;17.20;98084.20;;;;108927;1269;41187;-55
2022/10/23 14:05:33;;;;;;;;;;;;;17.20;98083.60;;;;108873;1269;41184;-55